Aviation Digital Data Service (ADDS)

Output produced by METARs form (1438 UTC 24 July 2017)
found at http://www.aviationweather.gov/adds/metars/
 
METAR text: EHGG 241425Z AUTO 03007KT 9999 -RA FEW011 BKN014 BKN016 16/15 Q1009 NOSIG
Conditions at: EHGG (GRONINGEN/EELDE , NL) observed 1425 UTC 24 July 2017
Temperature: 16.0°C (61°F)
Dewpoint: 15.0°C (59°F) [RH = 94%]
Pressure (altimeter): 29.79 inches Hg (1009.0 mb)
Winds: from the NNE (30 degrees) at 8 MPH (7 knots; 3.6 m/s)
Visibility: 6 or more miles (10+ km)
Ceiling: 1400 feet AGL
Clouds: few clouds at 1100 feet AGL
broken clouds at 1400 feet AGL
broken clouds at 1600 feet AGL
Weather: -RA  (light rain)